sensor_id;sensor_type;location;lat;lon;timestamp;P1;durP1;ratioP1;P2;durP2;ratioP2
55292;SDS011;41157;53.560;10.098;2023-05-13T00:01:40;9.30;;;4.30;;
55292;SDS011;41157;53.560;10.098;2023-05-13T00:04:08;7.63;;;4.67;;
55292;SDS011;41157;53.560;10.098;2023-05-13T00:06:35;9.63;;;4.87;;
55292;SDS011;41157;53.560;10.098;2023-05-13T00:09:02;9.97;;;5.13;;
55292;SDS011;41157;53.560;10.098;2023-05-13T00:11:29;7.70;;;4.50;;
55292;SDS011;41157;53.560;10.098;2023-05-13T00:13:56;7.23;;;4.03;;
55292;SDS011;41157;53.560;10.098;2023-05-13T00:16:23;8.40;;;4.80;;
55292;SDS011;41157;53.560;10.098;2023-05-13T00:18:54;7.20;;;4.87;;
55292;SDS011;41157;53.560;10.098;2023-05-13T00:21:21;7.77;;;4.73;;
55292;SDS011;41157;53.560;10.098;2023-05-13T00:23:48;8.30;;;4.67;;
55292;SDS011;41157;53.560;10.098;2023-05-13T00:26:15;7.60;;;5.23;;
55292;SDS011;41157;53.560;10.098;2023-05-13T00:28:42;7.47;;;4.80;;
55292;SDS011;41157;53.560;10.098;2023-05-13T00:31:09;9.87;;;5.70;;
55292;SDS011;41157;53.560;10.098;2023-05-13T00:33:36;9.47;;;4.60;;
55292;SDS011;41157;53.560;10.098;2023-05-13T00:36:05;8.03;;;4.97;;
55292;SDS011;41157;53.560;10.098;2023-05-13T00:38:34;6.53;;;4.90;;
55292;SDS011;41157;53.560;10.098;2023-05-13T00:41:01;6.03;;;4.60;;
55292;SDS011;41157;53.560;10.098;2023-05-13T00:43:28;7.33;;;5.10;;
55292;SDS011;41157;53.560;10.098;2023-05-13T00:45:55;11.73;;;5.30;;
55292;SDS011;41157;53.560;10.098;2023-05-13T00:48:22;9.50;;;5.13;;
55292;SDS011;41157;53.560;10.098;2023-05-13T00:50:49;11.77;;;5.60;;
55292;SDS011;41157;53.560;10.098;2023-05-13T00:53:18;10.23;;;5.13;;
55292;SDS011;41157;53.560;10.098;2023-05-13T00:55:45;7.67;;;4.97;;
55292;SDS011;41157;53.560;10.098;2023-05-13T00:58:12;7.77;;;4.73;;
55292;SDS011;41157;53.560;10.098;2023-05-13T01:00:44;7.20;;;5.00;;
55292;SDS011;41157;53.560;10.098;2023-05-13T01:03:15;7.93;;;5.17;;
55292;SDS011;41157;53.560;10.098;2023-05-13T01:05:46;7.27;;;5.53;;
55292;SDS011;41157;53.560;10.098;2023-05-13T01:08:21;7.30;;;5.10;;
55292;SDS011;41157;53.560;10.098;2023-05-13T01:10:50;10.90;;;5.33;;
55292;SDS011;41157;53.560;10.098;2023-05-13T01:13:22;6.83;;;4.93;;
55292;SDS011;41157;53.560;10.098;2023-05-13T01:15:50;9.60;;;5.33;;
55292;SDS011;41157;53.560;10.098;2023-05-13T01:18:19;8.90;;;5.53;;
55292;SDS011;41157;53.560;10.098;2023-05-13T01:20:48;13.43;;;5.53;;
55292;SDS011;41157;53.560;10.098;2023-05-13T01:23:17;12.63;;;5.57;;
55292;SDS011;41157;53.560;10.098;2023-05-13T01:25:44;7.50;;;5.30;;
55292;SDS011;41157;53.560;10.098;2023-05-13T01:28:11;7.77;;;5.37;;
55292;SDS011;41157;53.560;10.098;2023-05-13T01:30:38;10.13;;;5.60;;
55292;SDS011;41157;53.560;10.098;2023-05-13T01:33:05;11.10;;;5.53;;
55292;SDS011;41157;53.560;10.098;2023-05-13T01:35:33;7.97;;;5.53;;
55292;SDS011;41157;53.560;10.098;2023-05-13T01:38:00;9.17;;;4.80;;
55292;SDS011;41157;53.560;10.098;2023-05-13T01:40:29;13.47;;;6.00;;
55292;SDS011;41157;53.560;10.098;2023-05-13T01:42:57;9.83;;;5.70;;
55292;SDS011;41157;53.560;10.098;2023-05-13T01:45:26;11.17;;;5.77;;
55292;SDS011;41157;53.560;10.098;2023-05-13T01:47:53;9.03;;;5.70;;
55292;SDS011;41157;53.560;10.098;2023-05-13T01:50:20;15.60;;;6.37;;
55292;SDS011;41157;53.560;10.098;2023-05-13T01:52:47;11.77;;;6.10;;
55292;SDS011;41157;53.560;10.098;2023-05-13T01:55:14;10.53;;;6.13;;
55292;SDS011;41157;53.560;10.098;2023-05-13T01:57:43;9.60;;;6.20;;
55292;SDS011;41157;53.560;10.098;2023-05-13T02:00:10;10.43;;;6.00;;
55292;SDS011;41157;53.560;10.098;2023-05-13T02:02:37;10.23;;;6.67;;
55292;SDS011;41157;53.560;10.098;2023-05-13T02:05:04;14.73;;;6.73;;
55292;SDS011;41157;53.560;10.098;2023-05-13T02:07:32;11.07;;;6.53;;
55292;SDS011;41157;53.560;10.098;2023-05-13T02:09:59;8.23;;;6.47;;
55292;SDS011;41157;53.560;10.098;2023-05-13T02:12:26;13.53;;;6.47;;
55292;SDS011;41157;53.560;10.098;2023-05-13T02:14:55;11.40;;;6.53;;
55292;SDS011;41157;53.560;10.098;2023-05-13T02:17:22;10.03;;;6.53;;
55292;SDS011;41157;53.560;10.098;2023-05-13T02:19:49;11.47;;;6.47;;
55292;SDS011;41157;53.560;10.098;2023-05-13T02:22:16;15.20;;;7.43;;
55292;SDS011;41157;53.560;10.098;2023-05-13T02:24:43;9.50;;;6.67;;
55292;SDS011;41157;53.560;10.098;2023-05-13T02:27:10;11.87;;;7.17;;
55292;SDS011;41157;53.560;10.098;2023-05-13T02:29:40;10.60;;;6.37;;
55292;SDS011;41157;53.560;10.098;2023-05-13T02:32:08;10.70;;;6.80;;
55292;SDS011;41157;53.560;10.098;2023-05-13T02:34:35;10.13;;;7.07;;
55292;SDS011;41157;53.560;10.098;2023-05-13T02:37:02;9.97;;;7.23;;
55292;SDS011;41157;53.560;10.098;2023-05-13T02:39:29;8.17;;;6.80;;
55292;SDS011;41157;53.560;10.098;2023-05-13T02:41:56;11.60;;;7.57;;
55292;SDS011;41157;53.560;10.098;2023-05-13T02:44:23;12.73;;;8.03;;
55292;SDS011;41157;53.560;10.098;2023-05-13T02:46:50;13.33;;;7.50;;
55292;SDS011;41157;53.560;10.098;2023-05-13T02:49:19;13.57;;;7.97;;
55292;SDS011;41157;53.560;10.098;2023-05-13T02:51:46;11.00;;;7.60;;
55292;SDS011;41157;53.560;10.098;2023-05-13T02:54:13;13.43;;;8.13;;
55292;SDS011;41157;53.560;10.098;2023-05-13T02:56:40;12.43;;;7.20;;
55292;SDS011;41157;53.560;10.098;2023-05-13T02:59:07;14.13;;;8.60;;
55292;SDS011;41157;53.560;10.098;2023-05-13T03:01:35;11.90;;;8.37;;
55292;SDS011;41157;53.560;10.098;2023-05-13T03:04:02;14.80;;;8.03;;
55292;SDS011;41157;53.560;10.098;2023-05-13T03:06:30;12.60;;;7.43;;
55292;SDS011;41157;53.560;10.098;2023-05-13T03:08:57;12.80;;;8.37;;
55292;SDS011;41157;53.560;10.098;2023-05-13T03:11:24;17.93;;;8.93;;
55292;SDS011;41157;53.560;10.098;2023-05-13T03:13:51;15.07;;;8.73;;
55292;SDS011;41157;53.560;10.098;2023-05-13T03:16:18;15.07;;;8.60;;
55292;SDS011;41157;53.560;10.098;2023-05-13T03:18:45;14.00;;;8.23;;
55292;SDS011;41157;53.560;10.098;2023-05-13T03:21:12;14.27;;;9.13;;
55292;SDS011;41157;53.560;10.098;2023-05-13T03:23:41;16.03;;;9.10;;
55292;SDS011;41157;53.560;10.098;2023-05-13T03:26:08;10.93;;;8.13;;
55292;SDS011;41157;53.560;10.098;2023-05-13T03:28:35;11.43;;;8.70;;
55292;SDS011;41157;53.560;10.098;2023-05-13T03:31:02;14.20;;;9.37;;
55292;SDS011;41157;53.560;10.098;2023-05-13T03:33:29;15.23;;;8.93;;
55292;SDS011;41157;53.560;10.098;2023-05-13T03:35:56;13.70;;;9.40;;
55292;SDS011;41157;53.560;10.098;2023-05-13T03:38:23;14.67;;;9.10;;
55292;SDS011;41157;53.560;10.098;2023-05-13T03:40:52;14.20;;;9.10;;
55292;SDS011;41157;53.560;10.098;2023-05-13T03:43:19;14.87;;;9.90;;
55292;SDS011;41157;53.560;10.098;2023-05-13T03:45:46;13.90;;;9.03;;
55292;SDS011;41157;53.560;10.098;2023-05-13T03:48:14;12.20;;;8.93;;
55292;SDS011;41157;53.560;10.098;2023-05-13T03:50:41;12.73;;;9.03;;
55292;SDS011;41157;53.560;10.098;2023-05-13T03:53:08;13.93;;;9.53;;
55292;SDS011;41157;53.560;10.098;2023-05-13T03:55:35;15.27;;;9.67;;
55292;SDS011;41157;53.560;10.098;2023-05-13T03:58:10;14.33;;;9.73;;
55292;SDS011;41157;53.560;10.098;2023-05-13T04:00:38;15.13;;;10.30;;
55292;SDS011;41157;53.560;10.098;2023-05-13T04:03:05;13.90;;;9.70;;
55292;SDS011;41157;53.560;10.098;2023-05-13T04:05:32;15.97;;;10.03;;
55292;SDS011;41157;53.560;10.098;2023-05-13T04:07:59;18.70;;;10.10;;
55292;SDS011;41157;53.560;10.098;2023-05-13T04:10:26;14.43;;;10.20;;
55292;SDS011;41157;53.560;10.098;2023-05-13T04:12:53;17.90;;;9.77;;
55292;SDS011;41157;53.560;10.098;2023-05-13T04:15:21;14.27;;;9.93;;
55292;SDS011;41157;53.560;10.098;2023-05-13T04:17:48;14.90;;;9.50;;
55292;SDS011;41157;53.560;10.098;2023-05-13T04:20:16;19.93;;;10.60;;
55292;SDS011;41157;53.560;10.098;2023-05-13T04:22:43;13.53;;;10.03;;
55292;SDS011;41157;53.560;10.098;2023-05-13T04:25:10;15.77;;;10.73;;
55292;SDS011;41157;53.560;10.098;2023-05-13T04:27:37;14.23;;;10.27;;
55292;SDS011;41157;53.560;10.098;2023-05-13T04:30:05;12.67;;;9.77;;
55292;SDS011;41157;53.560;10.098;2023-05-13T04:32:33;13.87;;;9.67;;
55292;SDS011;41157;53.560;10.098;2023-05-13T04:35:00;14.10;;;9.27;;
55292;SDS011;41157;53.560;10.098;2023-05-13T04:37:28;19.23;;;9.47;;
55292;SDS011;41157;53.560;10.098;2023-05-13T04:39:55;14.23;;;9.53;;
55292;SDS011;41157;53.560;10.098;2023-05-13T04:42:22;13.67;;;9.53;;
55292;SDS011;41157;53.560;10.098;2023-05-13T04:44:49;11.63;;;8.97;;
55292;SDS011;41157;53.560;10.098;2023-05-13T04:47:16;13.30;;;9.47;;
55292;SDS011;41157;53.560;10.098;2023-05-13T04:49:44;12.53;;;9.03;;
55292;SDS011;41157;53.560;10.098;2023-05-13T04:52:11;13.10;;;9.13;;
55292;SDS011;41157;53.560;10.098;2023-05-13T04:54:38;16.77;;;9.73;;
55292;SDS011;41157;53.560;10.098;2023-05-13T04:57:06;14.00;;;8.93;;
55292;SDS011;41157;53.560;10.098;2023-05-13T04:59:33;14.30;;;9.17;;
55292;SDS011;41157;53.560;10.098;2023-05-13T05:02:00;12.03;;;8.80;;
55292;SDS011;41157;53.560;10.098;2023-05-13T05:04:27;12.70;;;9.00;;
55292;SDS011;41157;53.560;10.098;2023-05-13T05:06:56;12.50;;;8.80;;
55292;SDS011;41157;53.560;10.098;2023-05-13T05:09:23;16.43;;;8.90;;
55292;SDS011;41157;53.560;10.098;2023-05-13T05:11:50;14.63;;;8.77;;
55292;SDS011;41157;53.560;10.098;2023-05-13T05:14:17;14.13;;;7.87;;
55292;SDS011;41157;53.560;10.098;2023-05-13T05:16:44;10.47;;;7.87;;
55292;SDS011;41157;53.560;10.098;2023-05-13T05:19:11;15.43;;;8.50;;
55292;SDS011;41157;53.560;10.098;2023-05-13T05:21:38;14.50;;;8.27;;
55292;SDS011;41157;53.560;10.098;2023-05-13T05:24:07;15.67;;;8.47;;
55292;SDS011;41157;53.560;10.098;2023-05-13T05:26:34;15.03;;;8.03;;
55292;SDS011;41157;53.560;10.098;2023-05-13T05:29:01;11.43;;;7.40;;
55292;SDS011;41157;53.560;10.098;2023-05-13T05:31:28;15.17;;;8.43;;
55292;SDS011;41157;53.560;10.098;2023-05-13T05:33:55;9.70;;;7.53;;
55292;SDS011;41157;53.560;10.098;2023-05-13T05:36:23;12.23;;;7.90;;
55292;SDS011;41157;53.560;10.098;2023-05-13T05:38:50;13.30;;;8.00;;
55292;SDS011;41157;53.560;10.098;2023-05-13T05:41:18;10.57;;;7.83;;
55292;SDS011;41157;53.560;10.098;2023-05-13T05:43:46;15.40;;;7.50;;
55292;SDS011;41157;53.560;10.098;2023-05-13T05:46:13;9.03;;;7.30;;
55292;SDS011;41157;53.560;10.098;2023-05-13T05:48:40;11.00;;;7.30;;
55292;SDS011;41157;53.560;10.098;2023-05-13T05:51:07;12.53;;;6.93;;
55292;SDS011;41157;53.560;10.098;2023-05-13T05:53:34;9.70;;;6.77;;
55292;SDS011;41157;53.560;10.098;2023-05-13T05:56:04;12.17;;;6.73;;
55292;SDS011;41157;53.560;10.098;2023-05-13T05:58:33;9.70;;;7.33;;
55292;SDS011;41157;53.560;10.098;2023-05-13T06:01:01;11.27;;;7.03;;
55292;SDS011;41157;53.560;10.098;2023-05-13T06:03:28;13.53;;;6.97;;
55292;SDS011;41157;53.560;10.098;2023-05-13T06:05:55;14.50;;;7.57;;
55292;SDS011;41157;53.560;10.098;2023-05-13T06:08:22;8.60;;;6.90;;
55292;SDS011;41157;53.560;10.098;2023-05-13T06:10:53;12.27;;;6.80;;
55292;SDS011;41157;53.560;10.098;2023-05-13T06:13:21;11.63;;;6.80;;
55292;SDS011;41157;53.560;10.098;2023-05-13T06:15:49;9.80;;;6.80;;
55292;SDS011;41157;53.560;10.098;2023-05-13T06:18:16;8.83;;;6.93;;
55292;SDS011;41157;53.560;10.098;2023-05-13T06:20:43;9.33;;;6.30;;
55292;SDS011;41157;53.560;10.098;2023-05-13T06:23:10;8.43;;;5.53;;
55292;SDS011;41157;53.560;10.098;2023-05-13T06:25:38;6.93;;;6.10;;
55292;SDS011;41157;53.560;10.098;2023-05-13T06:28:06;7.47;;;6.20;;
55292;SDS011;41157;53.560;10.098;2023-05-13T06:30:33;11.10;;;5.60;;
55292;SDS011;41157;53.560;10.098;2023-05-13T06:33:03;25.67;;;16.43;;
55292;SDS011;41157;53.560;10.098;2023-05-13T06:35:30;11.37;;;6.13;;
55292;SDS011;41157;53.560;10.098;2023-05-13T06:37:57;8.87;;;5.43;;
55292;SDS011;41157;53.560;10.098;2023-05-13T06:40:24;7.77;;;5.63;;
55292;SDS011;41157;53.560;10.098;2023-05-13T06:42:51;9.60;;;4.90;;
55292;SDS011;41157;53.560;10.098;2023-05-13T06:45:18;7.53;;;4.80;;
55292;SDS011;41157;53.560;10.098;2023-05-13T06:47:47;9.93;;;4.97;;
55292;SDS011;41157;53.560;10.098;2023-05-13T06:50:16;12.40;;;5.23;;
55292;SDS011;41157;53.560;10.098;2023-05-13T06:52:43;9.33;;;4.83;;
55292;SDS011;41157;53.560;10.098;2023-05-13T06:55:11;8.23;;;4.70;;
55292;SDS011;41157;53.560;10.098;2023-05-13T06:57:38;11.03;;;5.40;;
55292;SDS011;41157;53.560;10.098;2023-05-13T07:00:05;14.33;;;8.23;;
55292;SDS011;41157;53.560;10.098;2023-05-13T07:02:32;7.40;;;4.90;;
55292;SDS011;41157;53.560;10.098;2023-05-13T07:04:59;8.13;;;4.70;;
55292;SDS011;41157;53.560;10.098;2023-05-13T07:07:28;7.10;;;4.60;;
55292;SDS011;41157;53.560;10.098;2023-05-13T07:09:55;4.37;;;3.97;;
55292;SDS011;41157;53.560;10.098;2023-05-13T07:12:22;10.50;;;4.23;;
55292;SDS011;41157;53.560;10.098;2023-05-13T07:14:49;7.17;;;4.20;;
55292;SDS011;41157;53.560;10.098;2023-05-13T07:17:16;6.13;;;4.20;;
55292;SDS011;41157;53.560;10.098;2023-05-13T07:19:43;6.63;;;3.93;;
55292;SDS011;41157;53.560;10.098;2023-05-13T07:22:10;9.17;;;4.10;;
55292;SDS011;41157;53.560;10.098;2023-05-13T07:24:38;6.88;;;3.80;;
55292;SDS011;41157;53.560;10.098;2023-05-13T07:27:06;8.30;;;3.90;;
55292;SDS011;41157;53.560;10.098;2023-05-13T07:29:33;6.15;;;4.35;;
55292;SDS011;41157;53.560;10.098;2023-05-13T07:32:02;8.95;;;4.00;;
55292;SDS011;41157;53.560;10.098;2023-05-13T07:34:29;7.95;;;4.50;;
55292;SDS011;41157;53.560;10.098;2023-05-13T07:36:56;9.25;;;4.13;;
55292;SDS011;41157;53.560;10.098;2023-05-13T07:39:23;6.85;;;3.60;;
55292;SDS011;41157;53.560;10.098;2023-05-13T07:41:52;8.27;;;3.40;;
55292;SDS011;41157;53.560;10.098;2023-05-13T07:44:20;7.07;;;3.78;;
55292;SDS011;41157;53.560;10.098;2023-05-13T07:46:47;4.00;;;3.58;;
55292;SDS011;41157;53.560;10.098;2023-05-13T07:49:17;8.38;;;4.10;;
55292;SDS011;41157;53.560;10.098;2023-05-13T07:51:44;13.63;;;3.97;;
55292;SDS011;41157;53.560;10.098;2023-05-13T07:54:11;6.15;;;3.60;;
55292;SDS011;41157;53.560;10.098;2023-05-13T07:56:38;7.50;;;3.45;;
55292;SDS011;41157;53.560;10.098;2023-05-13T07:59:09;8.93;;;3.88;;
55292;SDS011;41157;53.560;10.098;2023-05-13T08:01:36;5.60;;;3.55;;
55292;SDS011;41157;53.560;10.098;2023-05-13T08:04:03;8.30;;;4.55;;
55292;SDS011;41157;53.560;10.098;2023-05-13T08:06:30;8.30;;;5.25;;
55292;SDS011;41157;53.560;10.098;2023-05-13T08:08:57;4.75;;;3.35;;
55292;SDS011;41157;53.560;10.098;2023-05-13T08:11:26;8.68;;;3.90;;
55292;SDS011;41157;53.560;10.098;2023-05-13T08:13:53;8.45;;;3.53;;
55292;SDS011;41157;53.560;10.098;2023-05-13T08:16:21;7.35;;;3.60;;
55292;SDS011;41157;53.560;10.098;2023-05-13T08:18:48;6.20;;;3.40;;
55292;SDS011;41157;53.560;10.098;2023-05-13T08:21:15;12.80;;;3.92;;
55292;SDS011;41157;53.560;10.098;2023-05-13T08:23:42;9.25;;;3.67;;
55292;SDS011;41157;53.560;10.098;2023-05-13T08:26:09;6.95;;;3.10;;
55292;SDS011;41157;53.560;10.098;2023-05-13T08:28:36;6.05;;;3.28;;
55292;SDS011;41157;53.560;10.098;2023-05-13T08:31:03;6.78;;;3.42;;
55292;SDS011;41157;53.560;10.098;2023-05-13T08:33:32;5.95;;;3.30;;
55292;SDS011;41157;53.560;10.098;2023-05-13T08:35:59;5.32;;;3.38;;
55292;SDS011;41157;53.560;10.098;2023-05-13T08:38:26;5.95;;;3.20;;
55292;SDS011;41157;53.560;10.098;2023-05-13T08:40:53;8.13;;;3.55;;
55292;SDS011;41157;53.560;10.098;2023-05-13T08:43:21;6.80;;;2.90;;
55292;SDS011;41157;53.560;10.098;2023-05-13T08:45:49;6.30;;;4.50;;
55292;SDS011;41157;53.560;10.098;2023-05-13T08:48:17;11.02;;;3.53;;
55292;SDS011;41157;53.560;10.098;2023-05-13T08:50:46;5.97;;;3.38;;
55292;SDS011;41157;53.560;10.098;2023-05-13T08:53:15;5.82;;;3.38;;
55292;SDS011;41157;53.560;10.098;2023-05-13T08:55:43;5.95;;;3.05;;
55292;SDS011;41157;53.560;10.098;2023-05-13T08:58:10;12.05;;;3.20;;
55292;SDS011;41157;53.560;10.098;2023-05-13T09:00:38;5.85;;;3.03;;
55292;SDS011;41157;53.560;10.098;2023-05-13T09:03:05;6.32;;;2.90;;
55292;SDS011;41157;53.560;10.098;2023-05-13T09:05:34;7.93;;;3.20;;
55292;SDS011;41157;53.560;10.098;2023-05-13T09:08:04;8.43;;;3.05;;
55292;SDS011;41157;53.560;10.098;2023-05-13T09:10:32;5.30;;;3.28;;
55292;SDS011;41157;53.560;10.098;2023-05-13T09:12:59;13.45;;;3.53;;
55292;SDS011;41157;53.560;10.098;2023-05-13T09:15:27;9.82;;;2.55;;
55292;SDS011;41157;53.560;10.098;2023-05-13T09:17:58;6.95;;;3.08;;
55292;SDS011;41157;53.560;10.098;2023-05-13T09:20:25;5.63;;;2.75;;
55292;SDS011;41157;53.560;10.098;2023-05-13T09:22:54;7.63;;;3.00;;
55292;SDS011;41157;53.560;10.098;2023-05-13T09:25:23;9.10;;;3.30;;
55292;SDS011;41157;53.560;10.098;2023-05-13T09:27:51;6.07;;;2.70;;
55292;SDS011;41157;53.560;10.098;2023-05-13T09:30:21;8.30;;;2.90;;
55292;SDS011;41157;53.560;10.098;2023-05-13T09:33:02;10.75;;;3.08;;
55292;SDS011;41157;53.560;10.098;2023-05-13T09:35:30;8.52;;;2.95;;
55292;SDS011;41157;53.560;10.098;2023-05-13T09:37:57;12.00;;;2.90;;
55292;SDS011;41157;53.560;10.098;2023-05-13T09:40:25;7.53;;;3.00;;
55292;SDS011;41157;53.560;10.098;2023-05-13T09:42:55;4.40;;;2.75;;
55292;SDS011;41157;53.560;10.098;2023-05-13T09:45:24;6.75;;;2.78;;
55292;SDS011;41157;53.560;10.098;2023-05-13T09:47:52;6.82;;;3.00;;
55292;SDS011;41157;53.560;10.098;2023-05-13T09:50:21;6.60;;;3.40;;
55292;SDS011;41157;53.560;10.098;2023-05-13T09:52:48;6.13;;;2.60;;
55292;SDS011;41157;53.560;10.098;2023-05-13T09:55:16;6.20;;;2.83;;
55292;SDS011;41157;53.560;10.098;2023-05-13T09:57:44;6.80;;;3.08;;
55292;SDS011;41157;53.560;10.098;2023-05-13T10:00:12;5.18;;;3.25;;
55292;SDS011;41157;53.560;10.098;2023-05-13T10:02:40;6.95;;;2.53;;
55292;SDS011;41157;53.560;10.098;2023-05-13T10:05:07;8.23;;;2.88;;
55292;SDS011;41157;53.560;10.098;2023-05-13T10:07:34;3.25;;;2.70;;
55292;SDS011;41157;53.560;10.098;2023-05-13T10:10:02;4.70;;;2.70;;
55292;SDS011;41157;53.560;10.098;2023-05-13T10:12:30;6.82;;;2.70;;
55292;SDS011;41157;53.560;10.098;2023-05-13T10:14:59;5.10;;;2.88;;
55292;SDS011;41157;53.560;10.098;2023-05-13T10:17:27;7.78;;;2.83;;
55292;SDS011;41157;53.560;10.098;2023-05-13T10:19:55;3.95;;;2.70;;
55292;SDS011;41157;53.560;10.098;2023-05-13T10:22:24;8.20;;;2.72;;
55292;SDS011;41157;53.560;10.098;2023-05-13T10:24:54;7.18;;;2.90;;
55292;SDS011;41157;53.560;10.098;2023-05-13T10:27:23;7.97;;;2.55;;
55292;SDS011;41157;53.560;10.098;2023-05-13T10:29:52;8.82;;;2.40;;
55292;SDS011;41157;53.560;10.098;2023-05-13T10:32:21;3.85;;;2.70;;
55292;SDS011;41157;53.560;10.098;2023-05-13T10:34:48;7.18;;;2.65;;
55292;SDS011;41157;53.560;10.098;2023-05-13T10:37:22;3.75;;;2.47;;
55292;SDS011;41157;53.560;10.098;2023-05-13T10:40:00;7.07;;;2.83;;
55292;SDS011;41157;53.560;10.098;2023-05-13T10:42:36;6.00;;;2.75;;
55292;SDS011;41157;53.560;10.098;2023-05-13T10:45:03;4.32;;;2.40;;
55292;SDS011;41157;53.560;10.098;2023-05-13T10:47:32;9.02;;;2.53;;
55292;SDS011;41157;53.560;10.098;2023-05-13T10:50:01;4.45;;;2.83;;
55292;SDS011;41157;53.560;10.098;2023-05-13T10:52:40;9.25;;;2.90;;
55292;SDS011;41157;53.560;10.098;2023-05-13T10:55:13;7.93;;;2.88;;
55292;SDS011;41157;53.560;10.098;2023-05-13T10:57:40;8.95;;;2.78;;
55292;SDS011;41157;53.560;10.098;2023-05-13T11:00:11;6.65;;;2.58;;
55292;SDS011;41157;53.560;10.098;2023-05-13T11:02:39;4.28;;;2.38;;
55292;SDS011;41157;53.560;10.098;2023-05-13T11:05:07;7.60;;;2.60;;
55292;SDS011;41157;53.560;10.098;2023-05-13T11:07:36;2.90;;;2.30;;
55292;SDS011;41157;53.560;10.098;2023-05-13T11:10:09;6.05;;;2.30;;
55292;SDS011;41157;53.560;10.098;2023-05-13T11:15:41;8.30;;;2.58;;
55292;SDS011;41157;53.560;10.098;2023-05-13T11:18:10;3.28;;;2.58;;
55292;SDS011;41157;53.560;10.098;2023-05-13T11:20:37;7.10;;;2.50;;
55292;SDS011;41157;53.560;10.098;2023-05-13T11:23:04;6.28;;;2.60;;
55292;SDS011;41157;53.560;10.098;2023-05-13T11:25:32;6.15;;;2.72;;
55292;SDS011;41157;53.560;10.098;2023-05-13T11:28:00;6.45;;;2.63;;
55292;SDS011;41157;53.560;10.098;2023-05-13T11:30:28;2.63;;;2.40;;
55292;SDS011;41157;53.560;10.098;2023-05-13T11:32:55;6.25;;;2.60;;
55292;SDS011;41157;53.560;10.098;2023-05-13T11:35:25;4.05;;;2.60;;
55292;SDS011;41157;53.560;10.098;2023-05-13T11:37:52;6.13;;;2.67;;
55292;SDS011;41157;53.560;10.098;2023-05-13T11:40:22;7.00;;;2.60;;
55292;SDS011;41157;53.560;10.098;2023-05-13T11:42:50;5.72;;;2.80;;
55292;SDS011;41157;53.560;10.098;2023-05-13T11:45:17;8.10;;;2.50;;
55292;SDS011;41157;53.560;10.098;2023-05-13T11:47:44;4.88;;;2.45;;
55292;SDS011;41157;53.560;10.098;2023-05-13T11:50:21;4.60;;;2.55;;
55292;SDS011;41157;53.560;10.098;2023-05-13T11:52:53;15.55;;;3.47;;
55292;SDS011;41157;53.560;10.098;2023-05-13T11:55:23;7.45;;;2.55;;
55292;SDS011;41157;53.560;10.098;2023-05-13T11:57:51;5.07;;;2.50;;
55292;SDS011;41157;53.560;10.098;2023-05-13T12:00:23;3.60;;;2.58;;
55292;SDS011;41157;53.560;10.098;2023-05-13T12:02:50;10.88;;;2.88;;
55292;SDS011;41157;53.560;10.098;2023-05-13T12:05:18;4.00;;;2.60;;
55292;SDS011;41157;53.560;10.098;2023-05-13T12:07:45;9.57;;;2.65;;
55292;SDS011;41157;53.560;10.098;2023-05-13T12:10:13;7.65;;;2.38;;
55292;SDS011;41157;53.560;10.098;2023-05-13T12:12:41;4.70;;;2.78;;
55292;SDS011;41157;53.560;10.098;2023-05-13T12:15:09;5.97;;;2.60;;
55292;SDS011;41157;53.560;10.098;2023-05-13T12:17:36;4.18;;;2.42;;
55292;SDS011;41157;53.560;10.098;2023-05-13T12:20:07;2.83;;;2.40;;
55292;SDS011;41157;53.560;10.098;2023-05-13T12:22:35;5.97;;;2.42;;
55292;SDS011;41157;53.560;10.098;2023-05-13T12:27:50;7.78;;;2.40;;
55292;SDS011;41157;53.560;10.098;2023-05-13T12:30:18;4.15;;;2.72;;
55292;SDS011;41157;53.560;10.098;2023-05-13T12:32:45;5.78;;;2.20;;
55292;SDS011;41157;53.560;10.098;2023-05-13T12:35:12;2.67;;;2.13;;
55292;SDS011;41157;53.560;10.098;2023-05-13T12:37:39;4.25;;;2.10;;
55292;SDS011;41157;53.560;10.098;2023-05-13T12:40:09;6.90;;;2.33;;
55292;SDS011;41157;53.560;10.098;2023-05-13T12:42:37;6.20;;;2.42;;
55292;SDS011;41157;53.560;10.098;2023-05-13T12:45:06;4.63;;;2.47;;
55292;SDS011;41157;53.560;10.098;2023-05-13T12:47:46;5.55;;;2.42;;
55292;SDS011;41157;53.560;10.098;2023-05-13T12:50:14;7.30;;;2.50;;
55292;SDS011;41157;53.560;10.098;2023-05-13T12:52:42;5.18;;;2.30;;
55292;SDS011;41157;53.560;10.098;2023-05-13T12:55:09;3.92;;;2.40;;
55292;SDS011;41157;53.560;10.098;2023-05-13T12:57:38;11.23;;;2.40;;
55292;SDS011;41157;53.560;10.098;2023-05-13T13:00:08;5.88;;;2.33;;
55292;SDS011;41157;53.560;10.098;2023-05-13T13:02:35;8.00;;;2.85;;
55292;SDS011;41157;53.560;10.098;2023-05-13T13:05:02;7.18;;;2.30;;
55292;SDS011;41157;53.560;10.098;2023-05-13T13:07:29;3.22;;;2.22;;
55292;SDS011;41157;53.560;10.098;2023-05-13T13:09:56;3.20;;;2.40;;
55292;SDS011;41157;53.560;10.098;2023-05-13T13:12:24;5.55;;;2.50;;
55292;SDS011;41157;53.560;10.098;2023-05-13T13:14:51;5.57;;;2.50;;
55292;SDS011;41157;53.560;10.098;2023-05-13T13:17:20;3.88;;;2.35;;
55292;SDS011;41157;53.560;10.098;2023-05-13T13:19:47;4.40;;;2.25;;
55292;SDS011;41157;53.560;10.098;2023-05-13T13:22:14;4.22;;;2.55;;
55292;SDS011;41157;53.560;10.098;2023-05-13T13:24:41;2.97;;;2.40;;
55292;SDS011;41157;53.560;10.098;2023-05-13T13:27:08;4.43;;;2.05;;
55292;SDS011;41157;53.560;10.098;2023-05-13T13:29:35;5.03;;;2.40;;
55292;SDS011;41157;53.560;10.098;2023-05-13T13:32:03;3.40;;;2.33;;
55292;SDS011;41157;53.560;10.098;2023-05-13T13:34:31;4.97;;;2.15;;
55292;SDS011;41157;53.560;10.098;2023-05-13T13:36:58;3.78;;;2.35;;
55292;SDS011;41157;53.560;10.098;2023-05-13T13:39:25;3.40;;;2.00;;
55292;SDS011;41157;53.560;10.098;2023-05-13T13:41:52;2.65;;;1.90;;
55292;SDS011;41157;53.560;10.098;2023-05-13T13:44:19;4.65;;;1.92;;
55292;SDS011;41157;53.560;10.098;2023-05-13T13:46:46;4.55;;;2.28;;
55292;SDS011;41157;53.560;10.098;2023-05-13T13:49:13;3.70;;;1.98;;
55292;SDS011;41157;53.560;10.098;2023-05-13T13:51:43;4.30;;;2.28;;
55292;SDS011;41157;53.560;10.098;2023-05-13T13:54:10;5.55;;;2.40;;
55292;SDS011;41157;53.560;10.098;2023-05-13T13:56:37;5.38;;;2.00;;
55292;SDS011;41157;53.560;10.098;2023-05-13T13:59:04;4.80;;;2.10;;
55292;SDS011;41157;53.560;10.098;2023-05-13T14:01:31;4.22;;;2.00;;
55292;SDS011;41157;53.560;10.098;2023-05-13T14:04:08;7.38;;;2.10;;
55292;SDS011;41157;53.560;10.098;2023-05-13T14:06:35;6.40;;;2.33;;
55292;SDS011;41157;53.560;10.098;2023-05-13T14:09:04;5.03;;;2.40;;
55292;SDS011;41157;53.560;10.098;2023-05-13T14:11:31;3.28;;;2.40;;
55292;SDS011;41157;53.560;10.098;2023-05-13T14:13:58;6.28;;;2.20;;
55292;SDS011;41157;53.560;10.098;2023-05-13T14:16:25;3.80;;;2.40;;
55292;SDS011;41157;53.560;10.098;2023-05-13T14:18:52;4.95;;;2.35;;
55292;SDS011;41157;53.560;10.098;2023-05-13T14:21:19;9.88;;;2.47;;
55292;SDS011;41157;53.560;10.098;2023-05-13T14:23:46;5.95;;;2.00;;
55292;SDS011;41157;53.560;10.098;2023-05-13T14:26:15;3.72;;;2.15;;
55292;SDS011;41157;53.560;10.098;2023-05-13T14:28:42;5.28;;;2.10;;
55292;SDS011;41157;53.560;10.098;2023-05-13T14:31:09;4.57;;;2.05;;
55292;SDS011;41157;53.560;10.098;2023-05-13T14:33:36;4.88;;;2.38;;
55292;SDS011;41157;53.560;10.098;2023-05-13T14:36:04;2.65;;;2.40;;
55292;SDS011;41157;53.560;10.098;2023-05-13T14:38:32;2.33;;;2.05;;